sensor_id;sensor_type;location;lat;lon;timestamp;pressure;altitude;pressure_sealevel;temperature;humidity
74327;BME280;62745;51.060;13.786;2023-03-19T00:01:14;100086.91;;;9.73;51.97
74327;BME280;62745;51.060;13.786;2023-03-19T00:03:39;100096.47;;;9.61;52.03
74327;BME280;62745;51.060;13.786;2023-03-19T00:06:05;100094.72;;;9.53;52.27
74327;BME280;62745;51.060;13.786;2023-03-19T00:08:30;100095.13;;;9.50;52.50
74327;BME280;62745;51.060;13.786;2023-03-19T00:10:56;100091.09;;;9.40;52.26
74327;BME280;62745;51.060;13.786;2023-03-19T00:13:21;100090.53;;;9.44;52.75
74327;BME280;62745;51.060;13.786;2023-03-19T00:15:46;100090.00;;;9.34;52.92
74327;BME280;62745;51.060;13.786;2023-03-19T00:18:12;100091.28;;;9.38;52.88
74327;BME280;62745;51.060;13.786;2023-03-19T00:20:37;100084.69;;;9.34;53.02
74327;BME280;62745;51.060;13.786;2023-03-19T00:23:02;100086.31;;;9.35;53.07
74327;BME280;62745;51.060;13.786;2023-03-19T00:25:27;100096.81;;;9.37;53.33
74327;BME280;62745;51.060;13.786;2023-03-19T00:27:53;100078.47;;;9.27;53.28
74327;BME280;62745;51.060;13.786;2023-03-19T00:30:20;100099.66;;;9.35;52.90
74327;BME280;62745;51.060;13.786;2023-03-19T00:32:45;100087.53;;;9.32;52.84
74327;BME280;62745;51.060;13.786;2023-03-19T00:35:10;100088.13;;;9.49;52.93
74327;BME280;62745;51.060;13.786;2023-03-19T00:37:36;100062.66;;;9.25;52.28
74327;BME280;62745;51.060;13.786;2023-03-19T00:40:02;100068.09;;;9.17;52.66
74327;BME280;62745;51.060;13.786;2023-03-19T00:42:28;100062.69;;;9.11;52.78
74327;BME280;62745;51.060;13.786;2023-03-19T00:44:54;100087.81;;;9.23;53.15
74327;BME280;62745;51.060;13.786;2023-03-19T00:47:19;100082.88;;;9.20;52.71
74327;BME280;62745;51.060;13.786;2023-03-19T00:49:45;100082.34;;;9.10;53.20
74327;BME280;62745;51.060;13.786;2023-03-19T00:52:10;100065.56;;;8.94;53.67
74327;BME280;62745;51.060;13.786;2023-03-19T00:54:35;100082.81;;;9.13;53.72
74327;BME280;62745;51.060;13.786;2023-03-19T00:57:00;100085.56;;;9.05;53.28
74327;BME280;62745;51.060;13.786;2023-03-19T00:59:26;100070.69;;;8.96;53.37
74327;BME280;62745;51.060;13.786;2023-03-19T01:01:51;100083.91;;;9.04;53.14
74327;BME280;62745;51.060;13.786;2023-03-19T01:04:17;100087.31;;;8.98;53.12
74327;BME280;62745;51.060;13.786;2023-03-19T01:06:43;100088.97;;;8.99;55.88
74327;BME280;62745;51.060;13.786;2023-03-19T01:09:08;100072.09;;;8.77;57.42
74327;BME280;62745;51.060;13.786;2023-03-19T01:11:34;100098.81;;;8.84;58.90
74327;BME280;62745;51.060;13.786;2023-03-19T01:14:00;100085.88;;;8.66;55.85
74327;BME280;62745;51.060;13.786;2023-03-19T01:16:26;100078.81;;;8.58;54.95
74327;BME280;62745;51.060;13.786;2023-03-19T01:18:51;100094.25;;;8.78;54.43
74327;BME280;62745;51.060;13.786;2023-03-19T01:21:17;100079.28;;;8.77;54.55
74327;BME280;62745;51.060;13.786;2023-03-19T01:23:42;100069.97;;;8.72;54.12
74327;BME280;62745;51.060;13.786;2023-03-19T01:26:07;100074.03;;;8.68;54.21
74327;BME280;62745;51.060;13.786;2023-03-19T01:28:33;100078.53;;;8.68;55.65
74327;BME280;62745;51.060;13.786;2023-03-19T01:30:59;100076.97;;;8.59;57.55
74327;BME280;62745;51.060;13.786;2023-03-19T01:33:25;100068.63;;;8.47;56.96
74327;BME280;62745;51.060;13.786;2023-03-19T01:35:51;100070.81;;;8.43;57.51
74327;BME280;62745;51.060;13.786;2023-03-19T01:38:16;100070.69;;;8.37;56.46
74327;BME280;62745;51.060;13.786;2023-03-19T01:40:47;100071.59;;;8.29;56.33
74327;BME280;62745;51.060;13.786;2023-03-19T01:43:16;100072.16;;;8.25;56.10
74327;BME280;62745;51.060;13.786;2023-03-19T01:45:43;100074.00;;;8.39;57.75
74327;BME280;62745;51.060;13.786;2023-03-19T01:48:38;100068.22;;;8.35;58.42
74327;BME280;62745;51.060;13.786;2023-03-19T01:51:07;100070.41;;;8.32;59.03
74327;BME280;62745;51.060;13.786;2023-03-19T01:53:35;100058.59;;;8.34;58.84
74327;BME280;62745;51.060;13.786;2023-03-19T01:56:05;100075.84;;;8.38;57.91
74327;BME280;62745;51.060;13.786;2023-03-19T01:58:32;100075.38;;;8.35;56.74
74327;BME280;62745;51.060;13.786;2023-03-19T02:00:57;100079.22;;;8.32;56.20
74327;BME280;62745;51.060;13.786;2023-03-19T02:03:23;100077.75;;;8.30;56.46
74327;BME280;62745;51.060;13.786;2023-03-19T02:05:49;100081.59;;;8.27;57.47
74327;BME280;62745;51.060;13.786;2023-03-19T02:08:18;100085.91;;;8.28;57.76
74327;BME280;62745;51.060;13.786;2023-03-19T02:10:45;100089.28;;;8.22;57.51
74327;BME280;62745;51.060;13.786;2023-03-19T02:13:12;100098.41;;;8.28;56.82
74327;BME280;62745;51.060;13.786;2023-03-19T02:15:37;100074.81;;;8.25;57.05
74327;BME280;62745;51.060;13.786;2023-03-19T02:18:03;100073.69;;;8.19;57.01
74327;BME280;62745;51.060;13.786;2023-03-19T02:20:31;100077.66;;;8.23;60.12
74327;BME280;62745;51.060;13.786;2023-03-19T02:23:08;100080.38;;;8.15;57.81
74327;BME280;62745;51.060;13.786;2023-03-19T02:25:40;100069.28;;;8.11;58.11
74327;BME280;62745;51.060;13.786;2023-03-19T02:28:11;100071.66;;;8.06;58.11
74327;BME280;62745;51.060;13.786;2023-03-19T02:30:38;100074.97;;;8.08;59.04
74327;BME280;62745;51.060;13.786;2023-03-19T02:33:04;100071.34;;;8.01;58.23
74327;BME280;62745;51.060;13.786;2023-03-19T02:35:32;100072.19;;;8.02;58.08
74327;BME280;62745;51.060;13.786;2023-03-19T02:38:00;100063.00;;;8.04;57.50
74327;BME280;62745;51.060;13.786;2023-03-19T02:40:34;100083.69;;;8.17;56.94
74327;BME280;62745;51.060;13.786;2023-03-19T02:43:00;100075.44;;;8.27;58.22
74327;BME280;62745;51.060;13.786;2023-03-19T02:45:28;100076.66;;;8.24;57.09
74327;BME280;62745;51.060;13.786;2023-03-19T02:47:53;100085.28;;;8.26;59.59
74327;BME280;62745;51.060;13.786;2023-03-19T02:50:19;100075.88;;;8.15;60.54
74327;BME280;62745;51.060;13.786;2023-03-19T02:52:44;100065.59;;;8.12;59.20
74327;BME280;62745;51.060;13.786;2023-03-19T02:55:10;100071.47;;;8.08;57.65
74327;BME280;62745;51.060;13.786;2023-03-19T02:57:35;100064.59;;;8.13;57.69
74327;BME280;62745;51.060;13.786;2023-03-19T03:00:01;100062.75;;;8.14;57.35
74327;BME280;62745;51.060;13.786;2023-03-19T03:02:26;100063.41;;;8.16;57.05
74327;BME280;62745;51.060;13.786;2023-03-19T03:04:51;100060.75;;;8.16;57.12
74327;BME280;62745;51.060;13.786;2023-03-19T03:07:16;100064.34;;;8.23;56.83
74327;BME280;62745;51.060;13.786;2023-03-19T03:09:42;100073.22;;;8.15;58.88
74327;BME280;62745;51.060;13.786;2023-03-19T03:12:07;100071.38;;;8.16;57.05
74327;BME280;62745;51.060;13.786;2023-03-19T03:14:33;100085.44;;;8.25;57.55
74327;BME280;62745;51.060;13.786;2023-03-19T03:16:59;100072.78;;;8.27;56.44
74327;BME280;62745;51.060;13.786;2023-03-19T03:19:24;100086.91;;;8.27;56.35
74327;BME280;62745;51.060;13.786;2023-03-19T03:21:50;100106.31;;;8.36;56.05
74327;BME280;62745;51.060;13.786;2023-03-19T03:24:15;100108.66;;;8.31;56.14
74327;BME280;62745;51.060;13.786;2023-03-19T03:26:40;100112.94;;;8.40;56.76
74327;BME280;62745;51.060;13.786;2023-03-19T03:29:06;100112.28;;;8.38;55.47
74327;BME280;62745;51.060;13.786;2023-03-19T03:31:32;100119.56;;;8.44;55.39
74327;BME280;62745;51.060;13.786;2023-03-19T03:33:57;100112.34;;;8.30;55.82
74327;BME280;62745;51.060;13.786;2023-03-19T03:36:22;100110.41;;;8.24;55.93
74327;BME280;62745;51.060;13.786;2023-03-19T03:38:47;100112.41;;;8.22;55.54
74327;BME280;62745;51.060;13.786;2023-03-19T03:41:13;100105.06;;;8.09;56.19
74327;BME280;62745;51.060;13.786;2023-03-19T03:43:38;100092.44;;;8.03;55.68
74327;BME280;62745;51.060;13.786;2023-03-19T03:46:04;100083.72;;;7.94;55.89
74327;BME280;62745;51.060;13.786;2023-03-19T03:48:30;100099.88;;;7.93;56.58
74327;BME280;62745;51.060;13.786;2023-03-19T03:50:55;100112.34;;;7.92;56.26
74327;BME280;62745;51.060;13.786;2023-03-19T03:53:20;100108.72;;;7.85;56.96
74327;BME280;62745;51.060;13.786;2023-03-19T03:55:45;100108.34;;;7.88;56.35
74327;BME280;62745;51.060;13.786;2023-03-19T03:58:11;100108.31;;;7.96;56.37
74327;BME280;62745;51.060;13.786;2023-03-19T04:00:37;100103.22;;;7.87;57.76
74327;BME280;62745;51.060;13.786;2023-03-19T04:03:02;100111.47;;;7.77;58.09
74327;BME280;62745;51.060;13.786;2023-03-19T04:05:28;100106.06;;;7.62;58.72
74327;BME280;62745;51.060;13.786;2023-03-19T04:07:53;100098.31;;;7.52;60.22
74327;BME280;62745;51.060;13.786;2023-03-19T04:10:18;100113.06;;;7.55;59.96
74327;BME280;62745;51.060;13.786;2023-03-19T04:12:43;100110.94;;;7.50;59.51
74327;BME280;62745;51.060;13.786;2023-03-19T04:15:10;100109.19;;;7.43;59.26
74327;BME280;62745;51.060;13.786;2023-03-19T04:17:36;100110.38;;;7.40;59.84
74327;BME280;62745;51.060;13.786;2023-03-19T04:20:03;100111.88;;;7.35;60.16
74327;BME280;62745;51.060;13.786;2023-03-19T04:22:29;100106.19;;;7.38;61.58
74327;BME280;62745;51.060;13.786;2023-03-19T04:24:54;100097.34;;;7.22;60.64
74327;BME280;62745;51.060;13.786;2023-03-19T04:27:20;100099.47;;;7.27;60.17
74327;BME280;62745;51.060;13.786;2023-03-19T04:29:45;100100.47;;;7.26;60.12
74327;BME280;62745;51.060;13.786;2023-03-19T04:32:11;100100.97;;;7.21;60.95
74327;BME280;62745;51.060;13.786;2023-03-19T04:34:39;100102.66;;;7.22;60.51
74327;BME280;62745;51.060;13.786;2023-03-19T04:37:05;100106.16;;;7.23;60.94
74327;BME280;62745;51.060;13.786;2023-03-19T04:39:31;100095.00;;;7.19;60.62
74327;BME280;62745;51.060;13.786;2023-03-19T04:42:01;100086.56;;;7.16;60.31
74327;BME280;62745;51.060;13.786;2023-03-19T04:44:27;100104.13;;;7.25;60.24
74327;BME280;62745;51.060;13.786;2023-03-19T04:46:52;100082.44;;;7.13;61.08
74327;BME280;62745;51.060;13.786;2023-03-19T04:49:18;100103.31;;;7.24;60.39
74327;BME280;62745;51.060;13.786;2023-03-19T04:51:43;100100.84;;;7.23;60.37
74327;BME280;62745;51.060;13.786;2023-03-19T04:54:08;100093.53;;;7.17;60.71
74327;BME280;62745;51.060;13.786;2023-03-19T04:56:36;100098.03;;;7.16;60.85
74327;BME280;62745;51.060;13.786;2023-03-19T04:59:01;100101.50;;;7.17;60.53
74327;BME280;62745;51.060;13.786;2023-03-19T05:01:26;100104.34;;;7.15;61.11
74327;BME280;62745;51.060;13.786;2023-03-19T05:03:51;100097.38;;;7.14;60.38
74327;BME280;62745;51.060;13.786;2023-03-19T05:06:17;100108.31;;;7.19;60.55
74327;BME280;62745;51.060;13.786;2023-03-19T05:08:44;100103.88;;;7.12;63.48
74327;BME280;62745;51.060;13.786;2023-03-19T05:11:09;100111.00;;;7.11;63.68
74327;BME280;62745;51.060;13.786;2023-03-19T05:13:35;100126.94;;;7.11;64.12
74327;BME280;62745;51.060;13.786;2023-03-19T05:16:00;100105.59;;;6.97;61.11
74327;BME280;62745;51.060;13.786;2023-03-19T05:18:26;100111.69;;;7.05;61.03
74327;BME280;62745;51.060;13.786;2023-03-19T05:20:51;100107.53;;;7.03;60.45
74327;BME280;62745;51.060;13.786;2023-03-19T05:23:17;100099.09;;;7.07;60.93
74327;BME280;62745;51.060;13.786;2023-03-19T05:25:42;100108.56;;;7.02;61.41
74327;BME280;62745;51.060;13.786;2023-03-19T05:28:08;100111.59;;;6.90;61.46
74327;BME280;62745;51.060;13.786;2023-03-19T05:30:33;100104.31;;;6.84;62.42
74327;BME280;62745;51.060;13.786;2023-03-19T05:32:59;100112.59;;;6.89;61.75
74327;BME280;62745;51.060;13.786;2023-03-19T05:35:25;100109.13;;;6.81;60.96
74327;BME280;62745;51.060;13.786;2023-03-19T05:37:52;100115.56;;;6.86;61.24
74327;BME280;62745;51.060;13.786;2023-03-19T05:40:17;100114.09;;;6.84;61.67
74327;BME280;62745;51.060;13.786;2023-03-19T05:42:42;100107.47;;;6.80;61.81
74327;BME280;62745;51.060;13.786;2023-03-19T05:45:08;100115.28;;;6.81;61.69
74327;BME280;62745;51.060;13.786;2023-03-19T05:47:33;100112.31;;;6.76;61.40
74327;BME280;62745;51.060;13.786;2023-03-19T05:49:59;100114.09;;;6.92;60.88
74327;BME280;62745;51.060;13.786;2023-03-19T05:52:24;100132.28;;;7.03;60.72
74327;BME280;62745;51.060;13.786;2023-03-19T05:54:50;100114.09;;;6.92;60.74
74327;BME280;62745;51.060;13.786;2023-03-19T05:57:15;100118.81;;;7.05;60.80
74327;BME280;62745;51.060;13.786;2023-03-19T05:59:41;100125.94;;;7.12;61.91
74327;BME280;62745;51.060;13.786;2023-03-19T06:02:06;100115.09;;;7.22;61.08
74327;BME280;62745;51.060;13.786;2023-03-19T06:04:32;100130.00;;;8.08;89.61
74327;BME280;62745;51.060;13.786;2023-03-19T06:06:57;100130.13;;;8.96;70.72
74327;BME280;62745;51.060;13.786;2023-03-19T06:09:22;100124.78;;;9.62;66.76
74327;BME280;62745;51.060;13.786;2023-03-19T06:11:47;100137.34;;;9.47;57.29
74327;BME280;62745;51.060;13.786;2023-03-19T06:14:13;100138.13;;;10.05;58.94
74327;BME280;62745;51.060;13.786;2023-03-19T06:16:38;100123.91;;;10.75;71.84
74327;BME280;62745;51.060;13.786;2023-03-19T06:19:03;100132.06;;;10.95;62.84
74327;BME280;62745;51.060;13.786;2023-03-19T06:21:29;100125.81;;;11.90;62.59
74327;BME280;62745;51.060;13.786;2023-03-19T06:23:55;100130.78;;;12.06;62.00
74327;BME280;62745;51.060;13.786;2023-03-19T06:26:21;100122.53;;;12.41;59.74
74327;BME280;62745;51.060;13.786;2023-03-19T06:28:47;100125.56;;;12.90;59.85
74327;BME280;62745;51.060;13.786;2023-03-19T06:31:12;100124.00;;;12.30;60.81
74327;BME280;62745;51.060;13.786;2023-03-19T06:33:37;100125.22;;;11.94;59.50
74327;BME280;62745;51.060;13.786;2023-03-19T06:36:03;100113.28;;;12.17;60.00
74327;BME280;62745;51.060;13.786;2023-03-19T06:38:28;100122.72;;;12.59;51.78
74327;BME280;62745;51.060;13.786;2023-03-19T06:40:53;100134.09;;;12.34;47.32
74327;BME280;62745;51.060;13.786;2023-03-19T06:43:19;100129.56;;;12.61;54.01
74327;BME280;62745;51.060;13.786;2023-03-19T06:45:44;100131.16;;;12.76;50.93
74327;BME280;62745;51.060;13.786;2023-03-19T06:48:11;100127.91;;;12.54;49.20
74327;BME280;62745;51.060;13.786;2023-03-19T06:50:36;100133.88;;;12.56;47.70
74327;BME280;62745;51.060;13.786;2023-03-19T06:53:01;100135.53;;;11.97;47.04
74327;BME280;62745;51.060;13.786;2023-03-19T06:55:26;100132.44;;;11.94;48.32
74327;BME280;62745;51.060;13.786;2023-03-19T06:57:52;100140.06;;;12.37;52.87
74327;BME280;62745;51.060;13.786;2023-03-19T07:00:17;100135.06;;;12.73;47.70
74327;BME280;62745;51.060;13.786;2023-03-19T07:02:43;100134.91;;;12.55;48.80
74327;BME280;62745;51.060;13.786;2023-03-19T07:05:09;100141.63;;;13.10;50.15
74327;BME280;62745;51.060;13.786;2023-03-19T07:07:35;100147.28;;;13.40;48.97
74327;BME280;62745;51.060;13.786;2023-03-19T07:10:00;100153.69;;;13.39;47.03
74327;BME280;62745;51.060;13.786;2023-03-19T07:12:26;100139.75;;;13.04;47.66
74327;BME280;62745;51.060;13.786;2023-03-19T07:14:52;100150.69;;;13.67;46.83
74327;BME280;62745;51.060;13.786;2023-03-19T07:17:18;100150.41;;;13.75;44.13
74327;BME280;62745;51.060;13.786;2023-03-19T07:19:43;100156.31;;;13.91;45.37
74327;BME280;62745;51.060;13.786;2023-03-19T07:22:08;100161.22;;;14.32;44.86
74327;BME280;62745;51.060;13.786;2023-03-19T07:24:34;100173.44;;;14.28;45.32
74327;BME280;62745;51.060;13.786;2023-03-19T07:26:59;100171.28;;;14.68;43.46
74327;BME280;62745;51.060;13.786;2023-03-19T07:29:24;100177.22;;;14.52;43.42
74327;BME280;62745;51.060;13.786;2023-03-19T07:31:50;100173.19;;;14.61;43.65
74327;BME280;62745;51.060;13.786;2023-03-19T07:34:15;100178.09;;;14.46;43.64
74327;BME280;62745;51.060;13.786;2023-03-19T07:36:40;100162.72;;;14.53;44.03
74327;BME280;62745;51.060;13.786;2023-03-19T07:39:05;100171.75;;;14.33;42.77
74327;BME280;62745;51.060;13.786;2023-03-19T07:41:31;100163.22;;;14.11;43.43
74327;BME280;62745;51.060;13.786;2023-03-19T07:43:56;100154.88;;;14.20;44.14
74327;BME280;62745;51.060;13.786;2023-03-19T07:46:21;100157.94;;;13.98;43.60
74327;BME280;62745;51.060;13.786;2023-03-19T07:48:47;100162.88;;;14.26;43.08
74327;BME280;62745;51.060;13.786;2023-03-19T07:51:12;100153.59;;;14.29;44.98
74327;BME280;62745;51.060;13.786;2023-03-19T07:53:37;100161.69;;;14.22;41.91
74327;BME280;62745;51.060;13.786;2023-03-19T07:56:03;100164.00;;;14.19;40.79
74327;BME280;62745;51.060;13.786;2023-03-19T07:58:28;100160.75;;;13.72;40.41
74327;BME280;62745;51.060;13.786;2023-03-19T08:00:53;100160.03;;;13.96;43.37
74327;BME280;62745;51.060;13.786;2023-03-19T08:03:18;100160.47;;;14.18;42.11
74327;BME280;62745;51.060;13.786;2023-03-19T08:05:44;100164.00;;;14.19;41.90
74327;BME280;62745;51.060;13.786;2023-03-19T08:08:11;100161.03;;;14.77;42.28
74327;BME280;62745;51.060;13.786;2023-03-19T08:10:37;100157.97;;;14.73;43.16
74327;BME280;62745;51.060;13.786;2023-03-19T08:13:02;100161.06;;;15.68;40.74
74327;BME280;62745;51.060;13.786;2023-03-19T08:15:29;100108.66;;;15.82;38.50
74327;BME280;62745;51.060;13.786;2023-03-19T08:18:02;100148.84;;;15.95;38.62
74327;BME280;62745;51.060;13.786;2023-03-19T08:20:28;100161.34;;;15.78;38.32
74327;BME280;62745;51.060;13.786;2023-03-19T08:22:54;100161.38;;;15.90;40.17
74327;BME280;62745;51.060;13.786;2023-03-19T08:25:20;100162.50;;;15.71;38.58
74327;BME280;62745;51.060;13.786;2023-03-19T08:27:46;100148.31;;;15.45;39.51
74327;BME280;62745;51.060;13.786;2023-03-19T08:30:11;100155.03;;;15.36;38.90
74327;BME280;62745;51.060;13.786;2023-03-19T08:32:37;100165.69;;;15.43;39.62
74327;BME280;62745;51.060;13.786;2023-03-19T08:35:03;100159.97;;;15.39;41.06
74327;BME280;62745;51.060;13.786;2023-03-19T08:37:30;100165.19;;;15.34;41.11
74327;BME280;62745;51.060;13.786;2023-03-19T08:39:55;100153.16;;;15.37;39.69
74327;BME280;62745;51.060;13.786;2023-03-19T08:42:20;100164.84;;;15.12;41.05
74327;BME280;62745;51.060;13.786;2023-03-19T08:44:47;100173.34;;;15.09;42.04
74327;BME280;62745;51.060;13.786;2023-03-19T08:47:12;100171.28;;;15.29;44.26
74327;BME280;62745;51.060;13.786;2023-03-19T08:49:37;100173.78;;;15.24;42.87
74327;BME280;62745;51.060;13.786;2023-03-19T08:52:03;100165.94;;;15.23;43.00
74327;BME280;62745;51.060;13.786;2023-03-19T08:54:29;100162.97;;;15.31;44.30
74327;BME280;62745;51.060;13.786;2023-03-19T08:56:54;100164.66;;;15.44;42.41
74327;BME280;62745;51.060;13.786;2023-03-19T08:59:19;100155.75;;;15.43;40.94
74327;BME280;62745;51.060;13.786;2023-03-19T09:01:50;100166.53;;;15.43;40.42
74327;BME280;62745;51.060;13.786;2023-03-19T09:04:16;100171.78;;;15.38;41.44
74327;BME280;62745;51.060;13.786;2023-03-19T09:06:41;100162.88;;;15.38;40.52
74327;BME280;62745;51.060;13.786;2023-03-19T09:09:06;100160.63;;;15.53;38.17
74327;BME280;62745;51.060;13.786;2023-03-19T09:11:31;100166.38;;;15.56;40.32
74327;BME280;62745;51.060;13.786;2023-03-19T09:13:57;100179.38;;;15.78;40.73
74327;BME280;62745;51.060;13.786;2023-03-19T09:16:23;100168.41;;;15.91;41.52
74327;BME280;62745;51.060;13.786;2023-03-19T09:18:50;100180.59;;;15.82;40.24
74327;BME280;62745;51.060;13.786;2023-03-19T09:21:15;100179.66;;;15.88;39.69
74327;BME280;62745;51.060;13.786;2023-03-19T09:23:40;100168.00;;;15.57;38.81
74327;BME280;62745;51.060;13.786;2023-03-19T09:26:05;100167.06;;;16.00;40.75
74327;BME280;62745;51.060;13.786;2023-03-19T09:28:30;100175.63;;;16.09;38.87
74327;BME280;62745;51.060;13.786;2023-03-19T09:30:56;100181.06;;;15.90;39.59
74327;BME280;62745;51.060;13.786;2023-03-19T09:33:21;100178.97;;;15.62;41.52
74327;BME280;62745;51.060;13.786;2023-03-19T09:35:51;100182.38;;;15.51;42.44
74327;BME280;62745;51.060;13.786;2023-03-19T09:38:17;100164.06;;;15.42;40.12
74327;BME280;62745;51.060;13.786;2023-03-19T09:40:46;100177.25;;;15.31;40.38
74327;BME280;62745;51.060;13.786;2023-03-19T09:43:47;100160.66;;;15.16;40.40
74327;BME280;62745;51.060;13.786;2023-03-19T09:46:27;100180.50;;;15.52;41.13
74327;BME280;62745;51.060;13.786;2023-03-19T09:48:57;100170.44;;;15.66;41.61
74327;BME280;62745;51.060;13.786;2023-03-19T09:51:32;100160.50;;;15.78;40.79
74327;BME280;62745;51.060;13.786;2023-03-19T09:54:03;100158.28;;;15.56;41.51
74327;BME280;62745;51.060;13.786;2023-03-19T09:56:31;100144.78;;;15.63;40.75
74327;BME280;62745;51.060;13.786;2023-03-19T09:58:58;100149.84;;;15.71;40.36
74327;BME280;62745;51.060;13.786;2023-03-19T10:01:28;100155.69;;;15.68;40.25
74327;BME280;62745;51.060;13.786;2023-03-19T10:04:05;100149.31;;;15.81;41.09
74327;BME280;62745;51.060;13.786;2023-03-19T10:06:34;100150.88;;;16.00;39.44
74327;BME280;62745;51.060;13.786;2023-03-19T10:09:22;100150.00;;;16.18;39.47
74327;BME280;62745;51.060;13.786;2023-03-19T10:12:07;100151.91;;;16.52;39.03
74327;BME280;62745;51.060;13.786;2023-03-19T10:17:42;100146.63;;;16.58;37.43
74327;BME280;62745;51.060;13.786;2023-03-19T10:20:27;100155.38;;;16.83;39.45
74327;BME280;62745;51.060;13.786;2023-03-19T10:23:02;100141.97;;;17.00;38.45
74327;BME280;62745;51.060;13.786;2023-03-19T10:25:32;100148.03;;;17.30;37.80
74327;BME280;62745;51.060;13.786;2023-03-19T10:28:06;100152.84;;;17.57;37.48
74327;BME280;62745;51.060;13.786;2023-03-19T10:30:35;100150.19;;;17.45;37.68
74327;BME280;62745;51.060;13.786;2023-03-19T10:33:24;100148.53;;;16.92;35.52
74327;BME280;62745;51.060;13.786;2023-03-19T10:35:56;100154.13;;;17.26;35.87
74327;BME280;62745;51.060;13.786;2023-03-19T10:38:25;100155.38;;;16.83;36.41
74327;BME280;62745;51.060;13.786;2023-03-19T10:41:02;100148.63;;;16.50;36.75
74327;BME280;62745;51.060;13.786;2023-03-19T10:43:29;100150.59;;;16.43;37.22
74327;BME280;62745;51.060;13.786;2023-03-19T10:45:56;100146.50;;;16.41;37.48
74327;BME280;62745;51.060;13.786;2023-03-19T10:48:24;100133.94;;;16.23;37.57
74327;BME280;62745;51.060;13.786;2023-03-19T10:50:53;100144.06;;;16.51;37.23
74327;BME280;62745;51.060;13.786;2023-03-19T10:55:54;100143.91;;;16.22;37.06
74327;BME280;62745;51.060;13.786;2023-03-19T10:58:25;100147.34;;;16.30;37.58
74327;BME280;62745;51.060;13.786;2023-03-19T11:00:57;100136.75;;;16.16;37.91
74327;BME280;62745;51.060;13.786;2023-03-19T11:03:38;100145.22;;;16.32;38.22
74327;BME280;62745;51.060;13.786;2023-03-19T11:06:23;100140.91;;;16.54;37.72
74327;BME280;62745;51.060;13.786;2023-03-19T11:09:00;100138.41;;;16.41;37.29
74327;BME280;62745;51.060;13.786;2023-03-19T11:11:36;100139.84;;;16.55;37.68
74327;BME280;62745;51.060;13.786;2023-03-19T11:14:09;100141.00;;;16.59;37.77
74327;BME280;62745;51.060;13.786;2023-03-19T11:16:50;100133.41;;;16.79;37.21
74327;BME280;62745;51.060;13.786;2023-03-19T11:19:21;100137.34;;;17.12;37.24
74327;BME280;62745;51.060;13.786;2023-03-19T11:22:02;100133.66;;;17.30;37.45
74327;BME280;62745;51.060;13.786;2023-03-19T11:24:32;100133.03;;;17.51;36.77
74327;BME280;62745;51.060;13.786;2023-03-19T11:27:00;100132.53;;;17.66;36.12
74327;BME280;62745;51.060;13.786;2023-03-19T11:29:27;100122.59;;;17.43;35.98
74327;BME280;62745;51.060;13.786;2023-03-19T11:32:01;100120.03;;;17.48;36.16
74327;BME280;62745;51.060;13.786;2023-03-19T11:34:51;100125.69;;;17.75;36.69
74327;BME280;62745;51.060;13.786;2023-03-19T11:37:52;100120.19;;;17.70;36.50
74327;BME280;62745;51.060;13.786;2023-03-19T11:40:44;100116.41;;;17.99;35.36
74327;BME280;62745;51.060;13.786;2023-03-19T11:51:45;100117.81;;;18.36;34.94
74327;BME280;62745;51.060;13.786;2023-03-19T11:54:21;100119.69;;;18.35;34.97
74327;BME280;62745;51.060;13.786;2023-03-19T11:57:08;100100.19;;;18.50;35.08
74327;BME280;62745;51.060;13.786;2023-03-19T12:00:02;100110.25;;;18.38;34.82
74327;BME280;62745;51.060;13.786;2023-03-19T12:02:47;100108.44;;;18.60;34.01
74327;BME280;62745;51.060;13.786;2023-03-19T12:05:34;100101.59;;;18.91;34.83
74327;BME280;62745;51.060;13.786;2023-03-19T12:11:22;100103.31;;;19.19;34.02
74327;BME280;62745;51.060;13.786;2023-03-19T12:14:15;100107.84;;;19.35;34.21
74327;BME280;62745;51.060;13.786;2023-03-19T12:17:02;100115.13;;;19.13;33.48
74327;BME280;62745;51.060;13.786;2023-03-19T12:20:05;100106.53;;;18.77;34.15
74327;BME280;62745;51.060;13.786;2023-03-19T12:22:54;100102.56;;;18.13;35.61
74327;BME280;62745;51.060;13.786;2023-03-19T12:25:29;100093.00;;;17.77;35.60
74327;BME280;62745;51.060;13.786;2023-03-19T12:34:21;100105.25;;;17.67;36.09
74327;BME280;62745;51.060;13.786;2023-03-19T12:37:16;100107.94;;;17.96;36.28
74327;BME280;62745;51.060;13.786;2023-03-19T12:40:14;100112.38;;;18.02;36.41
74327;BME280;62745;51.060;13.786;2023-03-19T12:42:39;100107.56;;;18.21;36.13
74327;BME280;62745;51.060;13.786;2023-03-19T12:45:16;100101.16;;;18.10;35.97
74327;BME280;62745;51.060;13.786;2023-03-19T12:47:44;100115.25;;;18.12;35.85
74327;BME280;62745;51.060;13.786;2023-03-19T12:50:13;100099.38;;;18.16;36.37
74327;BME280;62745;51.060;13.786;2023-03-19T12:52:40;100112.28;;;18.14;35.79
74327;BME280;62745;51.060;13.786;2023-03-19T12:55:21;100106.81;;;18.25;35.67
74327;BME280;62745;51.060;13.786;2023-03-19T13:00:34;100109.38;;;18.15;35.92
74327;BME280;62745;51.060;13.786;2023-03-19T13:03:17;100109.44;;;18.20;35.29
74327;BME280;62745;51.060;13.786;2023-03-19T13:08:20;100113.59;;;18.45;35.10
74327;BME280;62745;51.060;13.786;2023-03-19T13:10:48;100108.53;;;17.98;36.06
74327;BME280;62745;51.060;13.786;2023-03-19T13:16:29;100109.81;;;17.95;36.34
74327;BME280;62745;51.060;13.786;2023-03-19T13:21:42;100108.44;;;17.64;37.27
74327;BME280;62745;51.060;13.786;2023-03-19T13:24:28;100110.34;;;17.64;36.81
74327;BME280;62745;51.060;13.786;2023-03-19T13:26:57;100099.25;;;17.49;37.67